createdAt,value
2022-10-17T03:43:54.491Z,7.89
2022-10-17T03:46:58.275Z,7.89
2022-10-17T03:50:01.180Z,7.38
2022-10-17T03:53:05.342Z,7.39
2022-10-17T03:56:14.478Z,7.43
2022-10-17T03:59:17.463Z,7.49
2022-10-17T04:02:20.506Z,7.49
2022-10-17T04:05:24.534Z,7.46
2022-10-17T04:08:27.630Z,7.54
2022-10-17T04:11:32.732Z,7.55
2022-10-17T04:14:36.421Z,7.53
2022-10-17T04:17:39.292Z,7.55
2022-10-17T04:20:41.832Z,7.68
2022-10-17T04:23:44.776Z,7.91
2022-10-17T04:26:50.306Z,7.93
2022-10-17T04:29:54.672Z,7.89
2022-10-17T04:32:58.355Z,7.84
2022-10-17T04:36:06.094Z,7.80
2022-10-17T04:39:08.901Z,7.80
2022-10-17T04:42:11.819Z,7.77
2022-10-17T04:45:15.945Z,7.84
2022-10-17T04:48:18.911Z,7.79
2022-10-17T04:51:24.443Z,7.79
2022-10-17T04:54:31.298Z,7.77
2022-10-17T04:57:35.616Z,7.80
2022-10-17T05:00:39.116Z,7.77
2022-10-17T05:03:42.487Z,7.76
2022-10-17T05:06:45.391Z,7.74
2022-10-17T05:09:48.979Z,7.75
2022-10-17T05:12:52.587Z,7.74
2022-10-17T05:16:02.629Z,7.75
2022-10-17T05:19:06.328Z,7.76
2022-10-17T05:22:09.595Z,7.82
2022-10-17T05:25:12.527Z,7.86
2022-10-17T05:28:15.010Z,7.95
2022-10-17T05:31:18.331Z,7.97
2022-10-17T05:34:21.108Z,8.05
2022-10-17T05:37:24.094Z,8.19
2022-10-17T05:40:27.170Z,8.24
2022-10-17T05:43:30.320Z,8.33
2022-10-17T05:46:33.305Z,8.43
2022-10-17T05:49:52.510Z,8.54
2022-10-17T05:52:55.825Z,8.68
2022-10-17T05:56:00.570Z,8.78
2022-10-17T05:59:03.284Z,8.94
2022-10-17T06:02:06.774Z,9.09
2022-10-17T06:05:10.488Z,9.26
2022-10-17T06:08:13.205Z,9.41
2022-10-17T06:11:16.159Z,9.60
2022-10-17T06:14:18.890Z,9.77
2022-10-17T06:17:23.674Z,9.94
2022-10-17T06:20:26.484Z,10.11
2022-10-17T06:23:30.345Z,10.27
2022-10-17T06:26:34.036Z,10.44
2022-10-17T06:29:36.757Z,10.64
2022-10-17T06:32:39.412Z,10.80
2022-10-17T06:35:42.233Z,10.94
2022-10-17T06:38:44.820Z,11.12
2022-10-17T06:41:48.359Z,11.25
2022-10-17T06:44:53.206Z,11.35
2022-10-17T06:47:56.560Z,11.48
2022-10-17T06:51:02.225Z,11.57
2022-10-17T06:54:05.174Z,11.78
2022-10-17T06:57:08.891Z,12.01
2022-10-17T07:00:12.472Z,12.17
2022-10-17T07:03:15.339Z,12.34
2022-10-17T07:06:19.138Z,12.47
2022-10-17T07:09:22.991Z,12.67
2022-10-17T07:12:26.442Z,12.85
2022-10-17T07:15:28.903Z,12.99
2022-10-17T07:18:31.660Z,13.14
2022-10-17T07:21:36.727Z,13.31
2022-10-17T07:24:42.406Z,13.45
2022-10-17T07:27:49.154Z,13.52
2022-10-17T07:30:54.474Z,13.62
2022-10-17T07:33:59.633Z,13.69
2022-10-17T07:37:03.480Z,13.73
2022-10-17T07:40:07.028Z,13.92
2022-10-17T07:43:09.980Z,13.92
2022-10-17T07:46:13.059Z,14.81
2022-10-17T07:49:16.393Z,15.67
2022-10-17T07:52:18.974Z,15.64
2022-10-17T07:55:21.796Z,15.21
2022-10-17T07:58:25.690Z,14.71
2022-10-17T08:01:28.965Z,14.79
2022-10-17T08:04:31.798Z,15.22
2022-10-17T08:07:34.278Z,15.46
2022-10-17T08:10:37.227Z,15.43
2022-10-17T08:13:40.447Z,15.39
2022-10-17T08:16:44.505Z,15.54
2022-10-17T08:19:47.118Z,15.66
2022-10-17T08:22:54.146Z,15.76
2022-10-17T08:26:00.757Z,15.92
2022-10-17T08:29:04.545Z,15.80
2022-10-17T08:32:10.005Z,15.99
2022-10-17T08:35:14.728Z,16.23
2022-10-17T08:38:20.827Z,16.23
2022-10-17T08:41:51.202Z,16.33
2022-10-17T08:44:56.658Z,16.35
2022-10-17T08:48:11.092Z,16.50
2022-10-17T08:51:24.995Z,16.73
2022-10-17T08:54:42.008Z,16.73
2022-10-17T08:57:44.711Z,16.51
2022-10-17T09:01:11.948Z,16.53
2022-10-17T09:04:37.888Z,16.60
2022-10-17T09:07:43.187Z,16.73
2022-10-17T09:10:57.347Z,16.91
2022-10-17T09:14:18.189Z,16.99
2022-10-17T09:17:31.206Z,17.12
2022-10-17T09:20:42.899Z,17.18
2022-10-17T09:23:53.229Z,17.30
2022-10-17T09:27:03.461Z,17.35
2022-10-17T09:30:44.021Z,17.20
2022-10-17T09:33:54.353Z,17.39
2022-10-17T09:37:00.030Z,17.67
2022-10-17T09:40:06.825Z,17.71
2022-10-17T09:43:13.756Z,17.84
2022-10-17T09:46:29.092Z,18.00
2022-10-17T09:49:37.827Z,18.22
2022-10-17T09:52:47.760Z,18.46
2022-10-17T09:55:56.159Z,18.54
2022-10-17T09:58:59.305Z,18.68
2022-10-17T10:02:28.439Z,18.76
2022-10-17T10:05:31.469Z,18.85
2022-10-17T10:08:49.669Z,18.99
2022-10-17T10:11:55.683Z,19.09
2022-10-17T10:14:58.651Z,19.04
2022-10-17T10:18:01.489Z,18.82
2022-10-17T10:21:17.223Z,18.76
2022-10-17T10:24:20.326Z,18.79
2022-10-17T10:27:23.886Z,18.87
2022-10-17T10:30:30.396Z,19.01
2022-10-17T10:33:40.447Z,19.34
2022-10-17T10:36:55.715Z,19.38
2022-10-17T10:40:03.754Z,19.55
2022-10-17T10:43:07.464Z,19.64
2022-10-17T10:46:18.173Z,19.71
2022-10-17T10:49:32.068Z,19.73
2022-10-17T10:52:49.326Z,19.79
2022-10-17T10:55:56.892Z,19.88
2022-10-17T10:59:08.624Z,19.87
2022-10-17T11:02:26.579Z,20.02
2022-10-17T11:06:11.189Z,20.04
2022-10-17T11:09:38.765Z,20.17
2022-10-17T11:13:06.702Z,20.38
2022-10-17T11:16:37.878Z,20.43
2022-10-17T11:19:58.856Z,20.58
2022-10-17T11:23:09.729Z,20.65
2022-10-17T11:26:27.011Z,20.74
2022-10-17T11:29:35.486Z,20.87
2022-10-17T11:32:43.983Z,20.94
2022-10-17T11:35:49.967Z,21.10
2022-10-17T11:39:14.003Z,21.16
2022-10-17T11:42:26.127Z,21.16
2022-10-17T11:45:35.992Z,21.19
2022-10-17T11:48:56.794Z,21.24
2022-10-17T11:52:37.682Z,21.26
2022-10-17T11:55:45.910Z,21.38
2022-10-17T11:59:06.283Z,21.46
2022-10-17T12:02:18.182Z,21.57
2022-10-17T12:05:44.537Z,21.67
2022-10-17T12:08:55.084Z,21.51
2022-10-17T12:12:02.563Z,21.57
2022-10-17T12:15:26.270Z,21.53
2022-10-17T12:18:31.109Z,21.76
2022-10-17T12:22:20.581Z,21.94
2022-10-17T12:25:30.168Z,22.14
2022-10-17T12:28:39.445Z,22.21
2022-10-17T12:31:42.737Z,22.34
2022-10-17T12:34:56.667Z,22.45
2022-10-17T12:38:18.644Z,22.59
2022-10-17T12:41:39.798Z,22.69
2022-10-17T12:44:44.823Z,22.94
2022-10-17T12:47:48.212Z,23.31
2022-10-17T12:51:17.523Z,23.51
2022-10-17T12:54:22.856Z,23.77
2022-10-17T12:57:50.336Z,24.07
2022-10-17T13:01:23.282Z,24.75
2022-10-17T13:04:21.585Z,25.09
2022-10-17T13:07:24.855Z,25.63
2022-10-17T13:10:32.325Z,26.47
2022-10-17T13:13:44.506Z,28.31
2022-10-17T13:17:07.748Z,29.79
2022-10-17T13:20:28.906Z,31.18
2022-10-17T13:23:38.195Z,31.14
2022-10-17T13:26:45.620Z,32.29
2022-10-17T13:29:48.685Z,33.80
2022-10-17T13:32:51.377Z,36.24
2022-10-17T13:36:01.657Z,37.77
2022-10-17T13:39:12.489Z,36.73
2022-10-17T13:42:24.732Z,36.53
2022-10-17T13:45:36.964Z,35.66
2022-10-17T13:48:40.028Z,37.64
2022-10-17T13:51:45.256Z,39.17
2022-10-17T13:54:53.680Z,40.78
2022-10-17T13:57:57.340Z,42.39
2022-10-17T14:01:00.352Z,42.91
2022-10-17T14:04:19.449Z,42.81
2022-10-17T14:07:41.610Z,43.30
2022-10-17T14:10:54.222Z,43.33
2022-10-17T14:13:58.002Z,43.68
2022-10-17T14:17:01.014Z,43.09
2022-10-17T14:20:34.001Z,42.77
2022-10-17T14:23:41.003Z,42.22
2022-10-17T14:26:58.947Z,39.27
2022-10-17T14:30:51.779Z,36.24
2022-10-17T14:33:51.901Z,32.40
2022-10-17T14:36:55.304Z,29.12
2022-10-17T14:40:03.015Z,27.25
2022-10-17T14:43:07.088Z,26.23
2022-10-17T14:46:16.713Z,25.28
2022-10-17T14:49:40.724Z,24.47
2022-10-17T14:53:01.503Z,23.57
2022-10-17T14:56:20.860Z,23.03
2022-10-17T14:59:52.148Z,22.46
2022-10-17T15:02:49.545Z,22.03
2022-10-17T15:05:53.377Z,21.73
2022-10-17T15:08:57.245Z,21.48
2022-10-17T15:12:04.559Z,21.01
2022-10-17T15:15:10.607Z,20.84
2022-10-17T15:18:14.791Z,20.59
2022-10-17T15:21:33.667Z,20.30
2022-10-17T15:24:40.997Z,20.10
2022-10-17T15:27:43.804Z,19.83
2022-10-17T15:30:46.462Z,19.57
2022-10-17T15:33:50.142Z,19.31
2022-10-17T15:36:54.093Z,19.08
